»·PEaware :: N52KA L52-L88

N52KA :: L52-L88

FLIGHT INFORMATION

Flight Status: Arrived
Operator: Privately registered:
United States
More flights under this callsign
Pilot: Carson T. (20437)
Aircraft: CESSNA 172 SKYHAWK
(C172)
More flights by this aircraft type
Origin: L52 Oceano Co
United States
Destination: L88 New Cuyama
United States
More flights between these airports :: More routes between these airports
Route:
File this flight plan on PilotEdge
Remarks:
Altitude:
(Current/Filed)
7,500ft
Speed:
(Current/Filed)
125kts
Departed: 13-Sep-18 08:47 PM
Arrived: 13-Sep-18 09:21 PM
Distance/Time
Traveled:
47nm/0:34
Distance/Time
To Go:
Arrived

Flight Plot

Page will automatically refresh every two minutes.


Map Options




Map Legend


Flown Route
Filed Route
Departure Airport
Arrival Airport
Navaid (VOR, NDB)
Fix

Horizontal Profiles

Position Reports

Time Latitude Longitude Heading Altitude Ground
Speed
13-Sep-18 20:28 35.103497 -120.624070 34 17ft 0kts
13-Sep-18 20:29 35.103497 -120.624070 34 17ft 0kts
13-Sep-18 20:30 35.103497 -120.624070 34 17ft 0kts
13-Sep-18 20:31 35.103497 -120.624070 34 17ft 0kts
13-Sep-18 20:32 35.103497 -120.624070 34 17ft 0kts
13-Sep-18 20:33 35.103497 -120.624070 34 17ft 0kts
13-Sep-18 20:34 35.103497 -120.624070 34 17ft 0kts
13-Sep-18 20:35 35.103498 -120.624070 34 17ft 0kts
13-Sep-18 20:36 35.103501 -120.624067 34 17ft 0kts
13-Sep-18 20:37 35.103504 -120.624065 34 17ft 0kts
13-Sep-18 20:38 35.103506 -120.624063 34 17ft 0kts
13-Sep-18 20:39 35.103509 -120.624060 34 17ft 0kts
13-Sep-18 20:40 35.103402 -120.624187 190 17ft 7kts
13-Sep-18 20:41 35.103334 -120.625092 209 17ft 0kts
13-Sep-18 20:42 35.103334 -120.625092 209 17ft 0kts
13-Sep-18 20:43 35.103334 -120.625093 209 17ft 0kts
13-Sep-18 20:44 35.103326 -120.625098 208 17ft 0kts
13-Sep-18 20:45 35.103319 -120.625102 207 17ft 0kts
13-Sep-18 20:46 35.103317 -120.625103 207 17ft 0kts
13-Sep-18 20:47 35.103316 -120.625104 207 17ft 0kts
13-Sep-18 20:48 35.103301 -120.625110 192 17ft 0kts
13-Sep-18 20:49 35.097733 -120.616143 127 185ft 78kts
13-Sep-18 20:50 35.089062 -120.592133 96 1061ft 80kts
13-Sep-18 20:51 35.085140 -120.565271 104 1873ft 80kts
13-Sep-18 20:52 35.081581 -120.539100 97 2648ft 77kts
13-Sep-18 20:53 35.078181 -120.513927 97 3360ft 75kts
13-Sep-18 20:54 35.074653 -120.488766 100 4052ft 75kts
13-Sep-18 20:55 35.068754 -120.464635 104 4737ft 72kts
13-Sep-18 20:56 35.062620 -120.439694 105 5301ft 82kts
13-Sep-18 20:57 35.055876 -120.411626 105 5836ft 88kts
13-Sep-18 20:58 35.048875 -120.382452 105 6340ft 89kts
13-Sep-18 20:59 35.041922 -120.353663 105 6827ft 88kts
13-Sep-18 21:00 35.034996 -120.325254 105 7313ft 86kts
13-Sep-18 21:01 35.027667 -120.295266 106 7521ft 104kts
13-Sep-18 21:02 35.018950 -120.259610 108 7501ft 111kts
13-Sep-18 21:03 35.010569 -120.223197 103 7500ft 111kts
13-Sep-18 21:04 35.003264 -120.186294 103 7500ft 111kts
13-Sep-18 21:05 34.996380 -120.149470 102 7500ft 111kts
13-Sep-18 21:06 34.989545 -120.112599 102 7500ft 111kts
13-Sep-18 21:07 34.983801 -120.081810 102 7500ft 111kts
13-Sep-18 21:08 34.975715 -120.038753 102 7500ft 111kts
13-Sep-18 21:09 34.969912 -120.008047 102 7500ft 111kts
13-Sep-18 21:10 34.962507 -119.965970 102 7500ft 111kts
13-Sep-18 21:11 34.956023 -119.929261 102 7500ft 111kts
13-Sep-18 21:12 34.950675 -119.899181 102 7500ft 111kts
13-Sep-18 21:13 34.942775 -119.855075 102 7170ft 127kts
13-Sep-18 21:14 34.936629 -119.818742 101 6632ft 132kts
13-Sep-18 21:15 34.929309 -119.774756 101 5981ft 132kts
13-Sep-18 21:16 34.922173 -119.731745 101 5350ft 134kts
13-Sep-18 21:17 34.914864 -119.687735 101 4709ft 135kts
13-Sep-18 21:18 34.903034 -119.646985 114 4354ft 127kts
13-Sep-18 21:19 34.907851 -119.618172 24 4126ft 87kts
13-Sep-18 21:20 34.920689 -119.640778 293 3553ft 83kts
13-Sep-18 21:21 34.928169 -119.664671 293 2930ft 70kts
13-Sep-18 21:22 34.935967 -119.684530 293 2209ft 60kts
13-Sep-18 21:23 34.939046 -119.692524 295 2206ft 12kts
13-Sep-18 21:24 34.939819 -119.693380 23 2206ft 0kts
13-Sep-18 21:25 34.939819 -119.693380 23 2206ft 0kts
13-Sep-18 21:26 34.939819 -119.693380 23 2206ft 0kts
13-Sep-18 21:27 34.939819 -119.693380 23 2206ft 0kts
13-Sep-18 21:28 34.939819 -119.693380 23 2206ft 0kts
13-Sep-18 21:29 34.939819 -119.693380 23 2206ft 0kts
13-Sep-18 21:30 34.939819 -119.693380 23 2206ft 0kts
13-Sep-18 21:31 34.939819 -119.693380 23 2206ft 0kts
13-Sep-18 21:32 34.939819 -119.693380 23 2206ft 0kts
13-Sep-18 21:33 34.939819 -119.693380 23 2206ft 0kts
13-Sep-18 21:34 34.939819 -119.693380 23 2206ft 0kts
13-Sep-18 21:35 34.939819 -119.693380 23 2206ft 0kts
13-Sep-18 21:36 34.939819 -119.693380 23 2206ft 0kts
13-Sep-18 21:37 34.939819 -119.693380 23 2206ft 0kts
13-Sep-18 21:38 34.939819 -119.693380 23 2206ft 0kts

Navigation Log

Ident Type
Flight plan parsing failed, navigation log unavailable